sensor_id;sensor_type;location;lat;lon;timestamp;temperature;humidity
6724;DHT22;3399;52.530;13.304;2023-03-03T00:01:30;0.60;99.90
6724;DHT22;3399;52.530;13.304;2023-03-03T00:03:57;0.60;99.90
6724;DHT22;3399;52.530;13.304;2023-03-03T00:06:23;0.60;99.90
6724;DHT22;3399;52.530;13.304;2023-03-03T00:08:49;0.60;99.90
6724;DHT22;3399;52.530;13.304;2023-03-03T00:11:15;0.60;99.90
6724;DHT22;3399;52.530;13.304;2023-03-03T00:13:49;0.50;99.90
6724;DHT22;3399;52.530;13.304;2023-03-03T00:16:35;0.40;99.90
6724;DHT22;3399;52.530;13.304;2023-03-03T00:19:01;0.30;99.90
6724;DHT22;3399;52.530;13.304;2023-03-03T00:21:29;0.40;99.90
6724;DHT22;3399;52.530;13.304;2023-03-03T00:26:40;0.30;99.90
6724;DHT22;3399;52.530;13.304;2023-03-03T00:29:29;0.30;99.90
6724;DHT22;3399;52.530;13.304;2023-03-03T00:34:36;0.50;99.90
6724;DHT22;3399;52.530;13.304;2023-03-03T00:37:02;0.40;99.90
6724;DHT22;3399;52.530;13.304;2023-03-03T00:39:34;0.50;99.90
6724;DHT22;3399;52.530;13.304;2023-03-03T00:42:00;0.30;99.90
6724;DHT22;3399;52.530;13.304;2023-03-03T00:44:41;0.30;99.90
6724;DHT22;3399;52.530;13.304;2023-03-03T00:47:25;0.30;99.90
6724;DHT22;3399;52.530;13.304;2023-03-03T00:49:51;0.30;99.90
6724;DHT22;3399;52.530;13.304;2023-03-03T00:52:18;0.30;99.90
6724;DHT22;3399;52.530;13.304;2023-03-03T00:54:45;0.40;99.90
6724;DHT22;3399;52.530;13.304;2023-03-03T00:57:11;0.50;99.90
6724;DHT22;3399;52.530;13.304;2023-03-03T00:59:39;0.50;99.90
6724;DHT22;3399;52.530;13.304;2023-03-03T01:02:05;0.60;99.90
6724;DHT22;3399;52.530;13.304;2023-03-03T01:04:31;0.60;99.90
6724;DHT22;3399;52.530;13.304;2023-03-03T01:06:56;0.60;99.90
6724;DHT22;3399;52.530;13.304;2023-03-03T01:09:22;0.60;99.90
6724;DHT22;3399;52.530;13.304;2023-03-03T01:11:48;0.60;99.90
6724;DHT22;3399;52.530;13.304;2023-03-03T01:14:14;0.70;99.90
6724;DHT22;3399;52.530;13.304;2023-03-03T01:16:40;0.60;99.90
6724;DHT22;3399;52.530;13.304;2023-03-03T01:19:06;0.60;99.90
6724;DHT22;3399;52.530;13.304;2023-03-03T01:21:32;0.40;99.90
6724;DHT22;3399;52.530;13.304;2023-03-03T01:23:57;0.40;99.90
6724;DHT22;3399;52.530;13.304;2023-03-03T01:26:23;0.20;99.90
6724;DHT22;3399;52.530;13.304;2023-03-03T01:28:48;0.20;99.90
6724;DHT22;3399;52.530;13.304;2023-03-03T01:31:14;0.20;99.90
6724;DHT22;3399;52.530;13.304;2023-03-03T01:33:39;0.20;99.90
6724;DHT22;3399;52.530;13.304;2023-03-03T01:36:05;0.30;99.90
6724;DHT22;3399;52.530;13.304;2023-03-03T01:38:34;0.40;99.90
6724;DHT22;3399;52.530;13.304;2023-03-03T01:41:01;0.40;99.90
6724;DHT22;3399;52.530;13.304;2023-03-03T01:43:28;0.20;99.90
6724;DHT22;3399;52.530;13.304;2023-03-03T01:48:30;0.20;99.90
6724;DHT22;3399;52.530;13.304;2023-03-03T01:51:01;0.20;99.90
6724;DHT22;3399;52.530;13.304;2023-03-03T01:53:33;0.10;99.90
6724;DHT22;3399;52.530;13.304;2023-03-03T01:56:02;0.10;99.90
6724;DHT22;3399;52.530;13.304;2023-03-03T01:58:30;-0.10;99.90
6724;DHT22;3399;52.530;13.304;2023-03-03T02:01:05;-0.10;99.90
6724;DHT22;3399;52.530;13.304;2023-03-03T02:03:32;-0.10;99.90
6724;DHT22;3399;52.530;13.304;2023-03-03T02:06:02;-0.10;99.90
6724;DHT22;3399;52.530;13.304;2023-03-03T02:08:38;-0.20;99.90
6724;DHT22;3399;52.530;13.304;2023-03-03T02:11:05;-0.20;99.90
6724;DHT22;3399;52.530;13.304;2023-03-03T02:13:31;-0.20;99.90
6724;DHT22;3399;52.530;13.304;2023-03-03T02:15:56;-0.10;99.90
6724;DHT22;3399;52.530;13.304;2023-03-03T02:18:23;-0.10;99.90
6724;DHT22;3399;52.530;13.304;2023-03-03T02:21:10;-0.20;99.90
6724;DHT22;3399;52.530;13.304;2023-03-03T02:26:36;-0.10;99.90
6724;DHT22;3399;52.530;13.304;2023-03-03T02:29:03;0.00;99.90
6724;DHT22;3399;52.530;13.304;2023-03-03T02:31:30;-0.10;99.90
6724;DHT22;3399;52.530;13.304;2023-03-03T02:33:56;-0.10;99.90
6724;DHT22;3399;52.530;13.304;2023-03-03T02:36:28;-0.10;99.90
6724;DHT22;3399;52.530;13.304;2023-03-03T02:41:53;-0.10;99.90
6724;DHT22;3399;52.530;13.304;2023-03-03T02:44:25;0.00;99.90
6724;DHT22;3399;52.530;13.304;2023-03-03T02:46:53;-0.20;99.90
6724;DHT22;3399;52.530;13.304;2023-03-03T02:49:21;-0.20;99.90
6724;DHT22;3399;52.530;13.304;2023-03-03T02:51:48;-0.10;99.90
6724;DHT22;3399;52.530;13.304;2023-03-03T02:54:15;0.00;99.90
6724;DHT22;3399;52.530;13.304;2023-03-03T02:56:42;0.00;99.90
6724;DHT22;3399;52.530;13.304;2023-03-03T02:59:07;-0.10;99.90
6724;DHT22;3399;52.530;13.304;2023-03-03T03:01:33;-0.20;99.90
6724;DHT22;3399;52.530;13.304;2023-03-03T03:04:15;-0.20;99.90
6724;DHT22;3399;52.530;13.304;2023-03-03T03:06:42;-0.20;99.90
6724;DHT22;3399;52.530;13.304;2023-03-03T03:09:08;-0.20;99.90
6724;DHT22;3399;52.530;13.304;2023-03-03T03:11:34;-0.20;99.90
6724;DHT22;3399;52.530;13.304;2023-03-03T03:14:04;-0.20;99.90
6724;DHT22;3399;52.530;13.304;2023-03-03T03:16:30;-0.40;99.90
6724;DHT22;3399;52.530;13.304;2023-03-03T03:18:56;-0.40;99.90
6724;DHT22;3399;52.530;13.304;2023-03-03T03:21:22;-0.50;99.90
6724;DHT22;3399;52.530;13.304;2023-03-03T03:23:48;-0.40;99.90
6724;DHT22;3399;52.530;13.304;2023-03-03T03:26:13;-0.40;99.90
6724;DHT22;3399;52.530;13.304;2023-03-03T03:28:39;-0.40;99.90
6724;DHT22;3399;52.530;13.304;2023-03-03T03:31:06;-0.30;99.90
6724;DHT22;3399;52.530;13.304;2023-03-03T03:33:32;-0.30;99.90
6724;DHT22;3399;52.530;13.304;2023-03-03T03:35:58;-0.40;99.90
6724;DHT22;3399;52.530;13.304;2023-03-03T03:38:25;-0.40;99.90
6724;DHT22;3399;52.530;13.304;2023-03-03T03:40:52;-0.40;99.90
6724;DHT22;3399;52.530;13.304;2023-03-03T03:43:17;-0.40;99.90
6724;DHT22;3399;52.530;13.304;2023-03-03T03:45:43;-0.50;99.90
6724;DHT22;3399;52.530;13.304;2023-03-03T03:48:09;-0.50;99.90
6724;DHT22;3399;52.530;13.304;2023-03-03T03:50:35;-0.50;99.90
6724;DHT22;3399;52.530;13.304;2023-03-03T03:53:01;-0.50;99.90
6724;DHT22;3399;52.530;13.304;2023-03-03T03:55:27;-0.50;99.90
6724;DHT22;3399;52.530;13.304;2023-03-03T03:57:54;-0.50;99.90
6724;DHT22;3399;52.530;13.304;2023-03-03T04:00:20;-0.50;99.90
6724;DHT22;3399;52.530;13.304;2023-03-03T04:02:45;-0.50;99.90
6724;DHT22;3399;52.530;13.304;2023-03-03T04:05:11;-0.60;99.90
6724;DHT22;3399;52.530;13.304;2023-03-03T04:07:36;-0.70;99.90
6724;DHT22;3399;52.530;13.304;2023-03-03T04:10:02;-0.70;99.90
6724;DHT22;3399;52.530;13.304;2023-03-03T04:12:28;-0.70;99.90
6724;DHT22;3399;52.530;13.304;2023-03-03T04:14:54;-0.60;99.90
6724;DHT22;3399;52.530;13.304;2023-03-03T04:17:21;-0.70;99.90
6724;DHT22;3399;52.530;13.304;2023-03-03T04:19:46;-0.70;99.90
6724;DHT22;3399;52.530;13.304;2023-03-03T04:22:12;-0.70;99.90
6724;DHT22;3399;52.530;13.304;2023-03-03T04:24:40;-0.60;99.90
6724;DHT22;3399;52.530;13.304;2023-03-03T04:27:06;-0.50;99.90
6724;DHT22;3399;52.530;13.304;2023-03-03T04:29:34;-0.40;99.90
6724;DHT22;3399;52.530;13.304;2023-03-03T04:32:00;-0.30;99.90
6724;DHT22;3399;52.530;13.304;2023-03-03T04:34:26;-0.30;99.90
6724;DHT22;3399;52.530;13.304;2023-03-03T04:36:51;-0.40;99.90
6724;DHT22;3399;52.530;13.304;2023-03-03T04:39:17;-0.50;99.90
6724;DHT22;3399;52.530;13.304;2023-03-03T04:41:42;-0.60;99.90
6724;DHT22;3399;52.530;13.304;2023-03-03T04:44:08;-0.70;99.90
6724;DHT22;3399;52.530;13.304;2023-03-03T04:46:34;-0.70;99.90
6724;DHT22;3399;52.530;13.304;2023-03-03T04:48:59;-0.60;99.90
6724;DHT22;3399;52.530;13.304;2023-03-03T04:51:24;-0.50;99.90
6724;DHT22;3399;52.530;13.304;2023-03-03T04:53:50;-0.50;99.90
6724;DHT22;3399;52.530;13.304;2023-03-03T04:56:15;-0.40;99.90
6724;DHT22;3399;52.530;13.304;2023-03-03T04:58:41;-0.40;99.90
6724;DHT22;3399;52.530;13.304;2023-03-03T05:01:06;-0.30;99.90
6724;DHT22;3399;52.530;13.304;2023-03-03T05:03:32;-0.20;99.90
6724;DHT22;3399;52.530;13.304;2023-03-03T05:05:57;-0.30;99.90
6724;DHT22;3399;52.530;13.304;2023-03-03T05:08:23;-0.40;99.90
6724;DHT22;3399;52.530;13.304;2023-03-03T05:10:52;-0.50;99.90
6724;DHT22;3399;52.530;13.304;2023-03-03T05:13:18;-0.50;99.90
6724;DHT22;3399;52.530;13.304;2023-03-03T05:15:51;-0.60;99.90
6724;DHT22;3399;52.530;13.304;2023-03-03T05:18:18;-0.70;99.90
6724;DHT22;3399;52.530;13.304;2023-03-03T05:20:44;-0.60;99.90
6724;DHT22;3399;52.530;13.304;2023-03-03T05:23:09;-0.70;99.90
6724;DHT22;3399;52.530;13.304;2023-03-03T05:25:35;-0.70;99.90
6724;DHT22;3399;52.530;13.304;2023-03-03T05:28:00;-0.80;99.90
6724;DHT22;3399;52.530;13.304;2023-03-03T05:30:26;-0.80;99.90
6724;DHT22;3399;52.530;13.304;2023-03-03T05:32:51;-0.70;99.90
6724;DHT22;3399;52.530;13.304;2023-03-03T05:35:17;-0.70;99.90
6724;DHT22;3399;52.530;13.304;2023-03-03T05:37:44;-0.70;99.90
6724;DHT22;3399;52.530;13.304;2023-03-03T05:40:12;-0.70;99.90
6724;DHT22;3399;52.530;13.304;2023-03-03T05:42:38;-0.60;99.90
6724;DHT22;3399;52.530;13.304;2023-03-03T05:45:04;-0.60;99.90
6724;DHT22;3399;52.530;13.304;2023-03-03T05:47:30;-0.60;99.90
6724;DHT22;3399;52.530;13.304;2023-03-03T05:49:55;-0.70;99.90
6724;DHT22;3399;52.530;13.304;2023-03-03T05:52:21;-0.70;99.90
6724;DHT22;3399;52.530;13.304;2023-03-03T05:54:48;-0.70;99.90
6724;DHT22;3399;52.530;13.304;2023-03-03T05:57:13;-0.80;99.90
6724;DHT22;3399;52.530;13.304;2023-03-03T05:59:39;-0.80;99.90
6724;DHT22;3399;52.530;13.304;2023-03-03T06:02:05;-0.80;99.90
6724;DHT22;3399;52.530;13.304;2023-03-03T06:04:31;-0.80;99.90
6724;DHT22;3399;52.530;13.304;2023-03-03T06:06:56;-0.90;99.90
6724;DHT22;3399;52.530;13.304;2023-03-03T06:09:22;-0.90;99.90
6724;DHT22;3399;52.530;13.304;2023-03-03T06:11:47;-0.90;99.90
6724;DHT22;3399;52.530;13.304;2023-03-03T06:14:13;-0.90;99.90
6724;DHT22;3399;52.530;13.304;2023-03-03T06:16:38;-1.00;99.90
6724;DHT22;3399;52.530;13.304;2023-03-03T06:19:04;-1.00;99.90
6724;DHT22;3399;52.530;13.304;2023-03-03T06:21:29;-1.00;99.90
6724;DHT22;3399;52.530;13.304;2023-03-03T06:23:55;-0.90;99.90
6724;DHT22;3399;52.530;13.304;2023-03-03T06:26:20;-0.80;99.90
6724;DHT22;3399;52.530;13.304;2023-03-03T06:28:46;-0.70;99.90
6724;DHT22;3399;52.530;13.304;2023-03-03T06:31:12;-0.70;99.90
6724;DHT22;3399;52.530;13.304;2023-03-03T06:33:37;-0.60;99.90
6724;DHT22;3399;52.530;13.304;2023-03-03T06:36:03;-0.70;99.90
6724;DHT22;3399;52.530;13.304;2023-03-03T06:38:29;-0.80;99.90
6724;DHT22;3399;52.530;13.304;2023-03-03T06:40:54;-0.80;99.90
6724;DHT22;3399;52.530;13.304;2023-03-03T06:43:20;-0.90;99.90
6724;DHT22;3399;52.530;13.304;2023-03-03T06:45:45;-0.80;99.90
6724;DHT22;3399;52.530;13.304;2023-03-03T06:48:11;-0.80;99.90
6724;DHT22;3399;52.530;13.304;2023-03-03T06:50:36;-0.90;99.90
6724;DHT22;3399;52.530;13.304;2023-03-03T06:53:17;-0.80;99.90
6724;DHT22;3399;52.530;13.304;2023-03-03T06:55:43;-0.80;99.90
6724;DHT22;3399;52.530;13.304;2023-03-03T06:58:16;-0.70;99.90
6724;DHT22;3399;52.530;13.304;2023-03-03T07:00:43;-0.70;99.90
6724;DHT22;3399;52.530;13.304;2023-03-03T07:03:22;-0.60;99.90
6724;DHT22;3399;52.530;13.304;2023-03-03T07:05:48;-0.50;99.90
6724;DHT22;3399;52.530;13.304;2023-03-03T07:08:19;-0.60;99.90
6724;DHT22;3399;52.530;13.304;2023-03-03T07:10:46;-0.50;99.90
6724;DHT22;3399;52.530;13.304;2023-03-03T07:13:31;-0.50;99.90
6724;DHT22;3399;52.530;13.304;2023-03-03T07:16:02;-0.40;99.90
6724;DHT22;3399;52.530;13.304;2023-03-03T07:18:51;-0.40;99.90
6724;DHT22;3399;52.530;13.304;2023-03-03T07:21:32;-0.50;99.90
6724;DHT22;3399;52.530;13.304;2023-03-03T07:23:59;-0.40;99.90
6724;DHT22;3399;52.530;13.304;2023-03-03T07:26:30;-0.50;99.90
6724;DHT22;3399;52.530;13.304;2023-03-03T07:29:02;-0.50;99.90
6724;DHT22;3399;52.530;13.304;2023-03-03T07:31:34;-0.40;99.90
6724;DHT22;3399;52.530;13.304;2023-03-03T07:34:11;-0.40;99.90
6724;DHT22;3399;52.530;13.304;2023-03-03T07:36:39;-0.40;99.90
6724;DHT22;3399;52.530;13.304;2023-03-03T07:41:50;-0.10;99.90
6724;DHT22;3399;52.530;13.304;2023-03-03T07:44:34;-0.10;99.90
6724;DHT22;3399;52.530;13.304;2023-03-03T07:47:14;-0.10;99.90
6724;DHT22;3399;52.530;13.304;2023-03-03T07:49:41;-0.10;99.90
6724;DHT22;3399;52.530;13.304;2023-03-03T07:52:35;-0.20;99.90
6724;DHT22;3399;52.530;13.304;2023-03-03T07:55:30;-0.30;99.90
6724;DHT22;3399;52.530;13.304;2023-03-03T08:03:41;-0.40;99.90
6724;DHT22;3399;52.530;13.304;2023-03-03T08:06:41;-0.30;99.90
6724;DHT22;3399;52.530;13.304;2023-03-03T08:11:34;-0.20;99.90
6724;DHT22;3399;52.530;13.304;2023-03-03T08:14:00;0.00;99.90
6724;DHT22;3399;52.530;13.304;2023-03-03T08:16:37;-0.10;99.90
6724;DHT22;3399;52.530;13.304;2023-03-03T08:19:04;-0.10;99.90
6724;DHT22;3399;52.530;13.304;2023-03-03T08:21:29;-0.10;99.90
6724;DHT22;3399;52.530;13.304;2023-03-03T08:23:56;-0.10;99.90
6724;DHT22;3399;52.530;13.304;2023-03-03T08:26:23;0.00;99.90
6724;DHT22;3399;52.530;13.304;2023-03-03T08:28:49;0.10;99.90
6724;DHT22;3399;52.530;13.304;2023-03-03T08:31:14;0.30;99.90
6724;DHT22;3399;52.530;13.304;2023-03-03T08:33:42;0.50;99.90
6724;DHT22;3399;52.530;13.304;2023-03-03T08:36:08;0.50;99.90
6724;DHT22;3399;52.530;13.304;2023-03-03T08:38:34;0.40;99.90
6724;DHT22;3399;52.530;13.304;2023-03-03T08:40:59;0.30;99.90
6724;DHT22;3399;52.530;13.304;2023-03-03T08:43:25;0.40;99.90
6724;DHT22;3399;52.530;13.304;2023-03-03T08:45:53;0.50;99.90
6724;DHT22;3399;52.530;13.304;2023-03-03T08:48:19;0.50;99.90
6724;DHT22;3399;52.530;13.304;2023-03-03T08:50:45;0.50;99.90
6724;DHT22;3399;52.530;13.304;2023-03-03T08:53:11;0.50;99.90
6724;DHT22;3399;52.530;13.304;2023-03-03T08:55:38;0.40;99.90
6724;DHT22;3399;52.530;13.304;2023-03-03T08:58:04;0.40;99.90
6724;DHT22;3399;52.530;13.304;2023-03-03T09:00:30;0.60;99.90
6724;DHT22;3399;52.530;13.304;2023-03-03T09:02:55;0.50;99.90
6724;DHT22;3399;52.530;13.304;2023-03-03T09:05:22;0.60;99.90
6724;DHT22;3399;52.530;13.304;2023-03-03T09:07:48;0.80;99.90
6724;DHT22;3399;52.530;13.304;2023-03-03T09:10:20;1.00;99.90
6724;DHT22;3399;52.530;13.304;2023-03-03T09:12:51;1.00;99.90
6724;DHT22;3399;52.530;13.304;2023-03-03T09:15:21;1.10;99.90
6724;DHT22;3399;52.530;13.304;2023-03-03T09:17:47;1.20;99.90
6724;DHT22;3399;52.530;13.304;2023-03-03T09:20:22;1.20;99.90
6724;DHT22;3399;52.530;13.304;2023-03-03T09:22:49;1.20;99.90
6724;DHT22;3399;52.530;13.304;2023-03-03T09:25:26;1.20;99.90
6724;DHT22;3399;52.530;13.304;2023-03-03T09:27:56;1.30;99.90
6724;DHT22;3399;52.530;13.304;2023-03-03T09:32:50;1.50;99.90
6724;DHT22;3399;52.530;13.304;2023-03-03T09:35:35;1.40;99.90
6724;DHT22;3399;52.530;13.304;2023-03-03T09:38:29;1.30;99.90
6724;DHT22;3399;52.530;13.304;2023-03-03T09:46:52;1.60;99.90
6724;DHT22;3399;52.530;13.304;2023-03-03T09:52:35;1.70;99.90
6724;DHT22;3399;52.530;13.304;2023-03-03T09:55:17;1.70;99.90
6724;DHT22;3399;52.530;13.304;2023-03-03T10:00:57;1.80;99.90
6724;DHT22;3399;52.530;13.304;2023-03-03T10:06:24;1.60;99.90
6724;DHT22;3399;52.530;13.304;2023-03-03T10:17:49;1.60;99.90
6724;DHT22;3399;52.530;13.304;2023-03-03T10:20:35;2.00;99.90
6724;DHT22;3399;52.530;13.304;2023-03-03T10:23:17;1.80;99.90
6724;DHT22;3399;52.530;13.304;2023-03-03T10:28:42;1.50;99.90
6724;DHT22;3399;52.530;13.304;2023-03-03T10:34:31;1.80;99.90
6724;DHT22;3399;52.530;13.304;2023-03-03T10:40:07;2.20;99.90
6724;DHT22;3399;52.530;13.304;2023-03-03T10:48:52;2.50;99.90
6724;DHT22;3399;52.530;13.304;2023-03-03T10:51:26;2.50;99.90
6724;DHT22;3399;52.530;13.304;2023-03-03T10:54:06;2.50;99.90
6724;DHT22;3399;52.530;13.304;2023-03-03T10:56:42;2.40;99.90
6724;DHT22;3399;52.530;13.304;2023-03-03T10:59:31;2.20;99.90
6724;DHT22;3399;52.530;13.304;2023-03-03T11:02:13;2.20;99.90
6724;DHT22;3399;52.530;13.304;2023-03-03T11:09:48;2.50;99.90
6724;DHT22;3399;52.530;13.304;2023-03-03T11:18:01;2.70;99.90
6724;DHT22;3399;52.530;13.304;2023-03-03T11:26:47;2.60;99.90
6724;DHT22;3399;52.530;13.304;2023-03-03T11:29:26;2.70;99.90
6724;DHT22;3399;52.530;13.304;2023-03-03T11:32:18;2.70;99.90
6724;DHT22;3399;52.530;13.304;2023-03-03T11:35:05;2.80;99.90
6724;DHT22;3399;52.530;13.304;2023-03-03T11:38:18;2.90;99.90
6724;DHT22;3399;52.530;13.304;2023-03-03T11:40:54;3.10;99.90
6724;DHT22;3399;52.530;13.304;2023-03-03T11:46:08;3.00;99.90
6724;DHT22;3399;52.530;13.304;2023-03-03T11:51:13;2.90;99.90
6724;DHT22;3399;52.530;13.304;2023-03-03T11:53:53;3.00;99.90
6724;DHT22;3399;52.530;13.304;2023-03-03T11:56:32;2.90;99.90
6724;DHT22;3399;52.530;13.304;2023-03-03T11:59:02;2.80;99.90
6724;DHT22;3399;52.530;13.304;2023-03-03T12:01:39;2.90;99.90
6724;DHT22;3399;52.530;13.304;2023-03-03T12:04:13;2.90;99.90
6724;DHT22;3399;52.530;13.304;2023-03-03T12:07:01;3.00;99.90
6724;DHT22;3399;52.530;13.304;2023-03-03T12:09:37;3.00;99.90
6724;DHT22;3399;52.530;13.304;2023-03-03T12:12:24;3.00;99.90
6724;DHT22;3399;52.530;13.304;2023-03-03T12:18:00;3.10;99.90
6724;DHT22;3399;52.530;13.304;2023-03-03T12:20:38;3.10;99.90
6724;DHT22;3399;52.530;13.304;2023-03-03T12:23:34;3.20;99.90
6724;DHT22;3399;52.530;13.304;2023-03-03T12:26:10;3.20;99.90
6724;DHT22;3399;52.530;13.304;2023-03-03T12:28:52;3.30;99.90
6724;DHT22;3399;52.530;13.304;2023-03-03T12:31:32;3.30;99.90
6724;DHT22;3399;52.530;13.304;2023-03-03T12:34:27;3.20;99.90
6724;DHT22;3399;52.530;13.304;2023-03-03T12:37:10;3.10;99.90
6724;DHT22;3399;52.530;13.304;2023-03-03T12:39:50;3.30;99.90
6724;DHT22;3399;52.530;13.304;2023-03-03T12:43:02;3.20;99.90
6724;DHT22;3399;52.530;13.304;2023-03-03T12:45:57;3.00;99.90
6724;DHT22;3399;52.530;13.304;2023-03-03T12:48:42;3.00;99.90
6724;DHT22;3399;52.530;13.304;2023-03-03T12:51:30;2.90;99.90
6724;DHT22;3399;52.530;13.304;2023-03-03T12:54:14;2.80;99.90
6724;DHT22;3399;52.530;13.304;2023-03-03T12:57:24;2.90;99.90
6724;DHT22;3399;52.530;13.304;2023-03-03T13:00:22;3.00;99.90
6724;DHT22;3399;52.530;13.304;2023-03-03T13:02:56;3.20;99.90
6724;DHT22;3399;52.530;13.304;2023-03-03T13:05:53;3.30;99.90
6724;DHT22;3399;52.530;13.304;2023-03-03T13:11:06;3.40;99.90
6724;DHT22;3399;52.530;13.304;2023-03-03T13:13:53;3.50;99.90
6724;DHT22;3399;52.530;13.304;2023-03-03T13:16:28;3.60;99.90
6724;DHT22;3399;52.530;13.304;2023-03-03T13:18:59;3.60;99.90
6724;DHT22;3399;52.530;13.304;2023-03-03T13:21:35;3.60;99.90
6724;DHT22;3399;52.530;13.304;2023-03-03T13:24:05;3.50;99.90
6724;DHT22;3399;52.530;13.304;2023-03-03T13:26:42;3.50;99.90
6724;DHT22;3399;52.530;13.304;2023-03-03T13:29:29;3.50;99.90
6724;DHT22;3399;52.530;13.304;2023-03-03T13:32:02;3.70;99.90
6724;DHT22;3399;52.530;13.304;2023-03-03T13:37:19;3.70;99.90
6724;DHT22;3399;52.530;13.304;2023-03-03T13:39:57;3.70;99.90
6724;DHT22;3399;52.530;13.304;2023-03-03T13:42:47;3.60;99.90
6724;DHT22;3399;52.530;13.304;2023-03-03T13:45:47;3.60;99.90
6724;DHT22;3399;52.530;13.304;2023-03-03T13:51:22;3.50;99.90
6724;DHT22;3399;52.530;13.304;2023-03-03T13:55:03;3.60;99.90
6724;DHT22;3399;52.530;13.304;2023-03-03T13:57:13;3.60;99.90
6724;DHT22;3399;52.530;13.304;2023-03-03T14:05:43;3.80;99.90
6724;DHT22;3399;52.530;13.304;2023-03-03T14:08:16;3.80;99.90
6724;DHT22;3399;52.530;13.304;2023-03-03T14:11:45;3.90;99.90
6724;DHT22;3399;52.530;13.304;2023-03-03T14:14:20;4.20;99.90
6724;DHT22;3399;52.530;13.304;2023-03-03T14:17:16;4.20;99.90
6724;DHT22;3399;52.530;13.304;2023-03-03T14:19:50;4.20;99.90
6724;DHT22;3399;52.530;13.304;2023-03-03T14:22:25;4.20;99.90
6724;DHT22;3399;52.530;13.304;2023-03-03T14:25:10;4.20;99.90
6724;DHT22;3399;52.530;13.304;2023-03-03T14:30:41;4.20;99.90
6724;DHT22;3399;52.530;13.304;2023-03-03T14:43:38;3.80;99.90
6724;DHT22;3399;52.530;13.304;2023-03-03T14:46:38;3.90;99.90
6724;DHT22;3399;52.530;13.304;2023-03-03T14:49:15;4.00;99.90
6724;DHT22;3399;52.530;13.304;2023-03-03T14:51:52;4.10;99.90
6724;DHT22;3399;52.530;13.304;2023-03-03T14:54:33;4.20;99.90
6724;DHT22;3399;52.530;13.304;2023-03-03T14:57:17;4.20;99.90
6724;DHT22;3399;52.530;13.304;2023-03-03T15:00:08;4.20;99.90
6724;DHT22;3399;52.530;13.304;2023-03-03T15:03:04;4.10;99.90
6724;DHT22;3399;52.530;13.304;2023-03-03T15:05:48;4.20;99.90
6724;DHT22;3399;52.530;13.304;2023-03-03T15:08:14;4.30;99.90
6724;DHT22;3399;52.530;13.304;2023-03-03T15:10:42;4.20;99.90
6724;DHT22;3399;52.530;13.304;2023-03-03T15:16:02;4.30;99.90
6724;DHT22;3399;52.530;13.304;2023-03-03T15:18:31;4.40;99.90
6724;DHT22;3399;52.530;13.304;2023-03-03T15:21:17;4.50;99.90
6724;DHT22;3399;52.530;13.304;2023-03-03T15:24:22;4.50;99.90
6724;DHT22;3399;52.530;13.304;2023-03-03T15:26:51;4.50;99.90
6724;DHT22;3399;52.530;13.304;2023-03-03T15:29:46;4.40;99.90
6724;DHT22;3399;52.530;13.304;2023-03-03T15:32:32;4.50;99.90
6724;DHT22;3399;52.530;13.304;2023-03-03T15:35:05;4.50;99.90
6724;DHT22;3399;52.530;13.304;2023-03-03T15:37:51;4.60;99.90
6724;DHT22;3399;52.530;13.304;2023-03-03T15:40:24;4.40;99.90
6724;DHT22;3399;52.530;13.304;2023-03-03T15:43:21;4.30;99.90
6724;DHT22;3399;52.530;13.304;2023-03-03T15:45:57;4.40;99.90
6724;DHT22;3399;52.530;13.304;2023-03-03T15:51:28;4.50;99.90
6724;DHT22;3399;52.530;13.304;2023-03-03T15:59:42;4.80;99.90
6724;DHT22;3399;52.530;13.304;2023-03-03T16:02:34;4.80;99.90
6724;DHT22;3399;52.530;13.304;2023-03-03T16:05:31;4.80;99.90
6724;DHT22;3399;52.530;13.304;2023-03-03T16:08:03;4.80;99.90
6724;DHT22;3399;52.530;13.304;2023-03-03T16:13:51;4.80;99.90
6724;DHT22;3399;52.530;13.304;2023-03-03T16:19:06;4.70;99.90
6724;DHT22;3399;52.530;13.304;2023-03-03T16:22:14;4.80;99.90
6724;DHT22;3399;52.530;13.304;2023-03-03T16:25:03;4.70;99.90
6724;DHT22;3399;52.530;13.304;2023-03-03T16:27:45;4.60;99.90
6724;DHT22;3399;52.530;13.304;2023-03-03T16:30:39;4.50;99.90
6724;DHT22;3399;52.530;13.304;2023-03-03T16:33:18;4.50;99.90
6724;DHT22;3399;52.530;13.304;2023-03-03T16:38:36;4.50;99.90
6724;DHT22;3399;52.530;13.304;2023-03-03T16:41:06;4.50;99.90
6724;DHT22;3399;52.530;13.304;2023-03-03T16:43:45;4.40;99.90
6724;DHT22;3399;52.530;13.304;2023-03-03T16:46:31;4.30;99.90
6724;DHT22;3399;52.530;13.304;2023-03-03T16:49:02;4.30;99.90
6724;DHT22;3399;52.530;13.304;2023-03-03T16:51:38;4.20;99.90
6724;DHT22;3399;52.530;13.304;2023-03-03T16:54:25;4.10;99.90
6724;DHT22;3399;52.530;13.304;2023-03-03T17:00:11;4.00;99.90
6724;DHT22;3399;52.530;13.304;2023-03-03T17:03:03;3.90;99.90
6724;DHT22;3399;52.530;13.304;2023-03-03T17:05:48;3.80;99.90
6724;DHT22;3399;52.530;13.304;2023-03-03T17:08:38;3.70;99.90
6724;DHT22;3399;52.530;13.304;2023-03-03T17:11:12;3.70;99.90
6724;DHT22;3399;52.530;13.304;2023-03-03T17:16:36;3.60;99.90
6724;DHT22;3399;52.530;13.304;2023-03-03T17:19:32;3.50;99.90
6724;DHT22;3399;52.530;13.304;2023-03-03T17:22:03;3.50;99.90
6724;DHT22;3399;52.530;13.304;2023-03-03T17:24:42;3.50;99.90
6724;DHT22;3399;52.530;13.304;2023-03-03T17:30:09;3.50;99.90
6724;DHT22;3399;52.530;13.304;2023-03-03T17:33:04;3.40;99.90
6724;DHT22;3399;52.530;13.304;2023-03-03T17:36:26;3.40;99.90
6724;DHT22;3399;52.530;13.304;2023-03-03T17:39:00;3.50;99.90
6724;DHT22;3399;52.530;13.304;2023-03-03T17:46:54;3.70;99.90
6724;DHT22;3399;52.530;13.304;2023-03-03T17:49:45;3.80;99.90
6724;DHT22;3399;52.530;13.304;2023-03-03T17:58:45;4.00;99.90
6724;DHT22;3399;52.530;13.304;2023-03-03T18:03:56;4.00;99.90
6724;DHT22;3399;52.530;13.304;2023-03-03T18:15:19;4.00;99.90
6724;DHT22;3399;52.530;13.304;2023-03-03T18:18:00;4.10;99.90
6724;DHT22;3399;52.530;13.304;2023-03-03T18:25:53;4.10;99.90
6724;DHT22;3399;52.530;13.304;2023-03-03T18:28:21;4.10;99.90
6724;DHT22;3399;52.530;13.304;2023-03-03T18:30:59;4.10;99.90
6724;DHT22;3399;52.530;13.304;2023-03-03T18:33:35;4.20;99.90
6724;DHT22;3399;52.530;13.304;2023-03-03T18:36:34;4.10;99.90
6724;DHT22;3399;52.530;13.304;2023-03-03T18:39:00;4.10;99.90
6724;DHT22;3399;52.530;13.304;2023-03-03T18:41:32;4.00;99.90
6724;DHT22;3399;52.530;13.304;2023-03-03T18:44:02;4.00;99.90
6724;DHT22;3399;52.530;13.304;2023-03-03T18:46:49;3.90;99.90
6724;DHT22;3399;52.530;13.304;2023-03-03T18:49:15;4.00;99.90
6724;DHT22;3399;52.530;13.304;2023-03-03T18:56:46;3.90;99.90
6724;DHT22;3399;52.530;13.304;2023-03-03T19:07:28;3.90;99.90
6724;DHT22;3399;52.530;13.304;2023-03-03T19:09:59;3.90;99.90
6724;DHT22;3399;52.530;13.304;2023-03-03T19:12:47;3.90;99.90
6724;DHT22;3399;52.530;13.304;2023-03-03T19:18:16;3.80;99.90
6724;DHT22;3399;52.530;13.304;2023-03-03T19:21:05;3.80;99.90
6724;DHT22;3399;52.530;13.304;2023-03-03T19:23:49;3.80;99.90
6724;DHT22;3399;52.530;13.304;2023-03-03T19:34:50;3.80;99.90
6724;DHT22;3399;52.530;13.304;2023-03-03T19:41:01;3.90;99.90
6724;DHT22;3399;52.530;13.304;2023-03-03T19:46:30;3.90;99.90
6724;DHT22;3399;52.530;13.304;2023-03-03T19:49:08;3.90;99.90
6724;DHT22;3399;52.530;13.304;2023-03-03T19:51:55;3.90;99.90
6724;DHT22;3399;52.530;13.304;2023-03-03T19:58:04;4.00;99.90
6724;DHT22;3399;52.530;13.304;2023-03-03T20:06:11;4.00;99.90
6724;DHT22;3399;52.530;13.304;2023-03-03T20:09:28;4.10;99.90
6724;DHT22;3399;52.530;13.304;2023-03-03T20:14:41;4.10;99.90
6724;DHT22;3399;52.530;13.304;2023-03-03T20:17:21;4.10;99.90